sensor_id;sensor_type;location;lat;lon;timestamp;temperature;humidity
17307;DHT22;8771;48.048;7.682;2023-01-19T00:04:18;2.20;80.70
17307;DHT22;8771;48.048;7.682;2023-01-19T00:09:21;2.10;80.80
17307;DHT22;8771;48.048;7.682;2023-01-19T00:14:23;2.10;80.80
17307;DHT22;8771;48.048;7.682;2023-01-19T00:19:25;2.10;80.70
17307;DHT22;8771;48.048;7.682;2023-01-19T00:24:28;2.10;80.80
17307;DHT22;8771;48.048;7.682;2023-01-19T00:29:30;2.10;80.80
17307;DHT22;8771;48.048;7.682;2023-01-19T00:34:33;2.00;80.80
17307;DHT22;8771;48.048;7.682;2023-01-19T00:39:40;2.00;80.80
17307;DHT22;8771;48.048;7.682;2023-01-19T00:44:42;2.00;80.90
17307;DHT22;8771;48.048;7.682;2023-01-19T00:49:44;2.00;80.90
17307;DHT22;8771;48.048;7.682;2023-01-19T00:54:47;2.00;81.00
17307;DHT22;8771;48.048;7.682;2023-01-19T00:59:49;2.00;81.00
17307;DHT22;8771;48.048;7.682;2023-01-19T01:04:51;1.90;80.90
17307;DHT22;8771;48.048;7.682;2023-01-19T01:09:55;1.90;80.90
17307;DHT22;8771;48.048;7.682;2023-01-19T01:14:57;1.90;80.90
17307;DHT22;8771;48.048;7.682;2023-01-19T01:19:59;1.90;80.90
17307;DHT22;8771;48.048;7.682;2023-01-19T01:25:03;1.80;80.90
17307;DHT22;8771;48.048;7.682;2023-01-19T01:30:08;1.90;80.90
17307;DHT22;8771;48.048;7.682;2023-01-19T01:35:11;1.80;80.90
17307;DHT22;8771;48.048;7.682;2023-01-19T01:40:16;1.80;80.80
17307;DHT22;8771;48.048;7.682;2023-01-19T01:45:30;1.80;80.80
17307;DHT22;8771;48.048;7.682;2023-01-19T01:50:35;1.80;80.70
17307;DHT22;8771;48.048;7.682;2023-01-19T01:55:42;1.80;80.70
17307;DHT22;8771;48.048;7.682;2023-01-19T02:00:46;1.80;80.70
17307;DHT22;8771;48.048;7.682;2023-01-19T02:06:06;1.80;80.70
17307;DHT22;8771;48.048;7.682;2023-01-19T02:11:10;1.90;80.70
17307;DHT22;8771;48.048;7.682;2023-01-19T02:16:30;1.80;80.70
17307;DHT22;8771;48.048;7.682;2023-01-19T02:21:35;1.80;80.70
17307;DHT22;8771;48.048;7.682;2023-01-19T02:26:43;1.80;80.80
17307;DHT22;8771;48.048;7.682;2023-01-19T02:31:46;1.70;80.80
17307;DHT22;8771;48.048;7.682;2023-01-19T02:36:51;1.80;80.80
17307;DHT22;8771;48.048;7.682;2023-01-19T02:41:58;1.70;80.90
17307;DHT22;8771;48.048;7.682;2023-01-19T02:47:02;1.70;80.90
17307;DHT22;8771;48.048;7.682;2023-01-19T02:52:05;1.70;81.00
17307;DHT22;8771;48.048;7.682;2023-01-19T02:57:23;1.70;81.00
17307;DHT22;8771;48.048;7.682;2023-01-19T03:02:33;1.70;80.90
17307;DHT22;8771;48.048;7.682;2023-01-19T03:07:46;1.60;80.90
17307;DHT22;8771;48.048;7.682;2023-01-19T03:12:56;1.70;80.90
17307;DHT22;8771;48.048;7.682;2023-01-19T03:18:05;1.70;80.90
17307;DHT22;8771;48.048;7.682;2023-01-19T03:23:11;1.70;80.90
17307;DHT22;8771;48.048;7.682;2023-01-19T03:28:18;1.70;80.70
17307;DHT22;8771;48.048;7.682;2023-01-19T03:33:23;1.70;80.70
17307;DHT22;8771;48.048;7.682;2023-01-19T03:38:28;1.70;80.60
17307;DHT22;8771;48.048;7.682;2023-01-19T03:43:35;1.70;80.70
17307;DHT22;8771;48.048;7.682;2023-01-19T03:48:39;1.60;80.70
17307;DHT22;8771;48.048;7.682;2023-01-19T03:53:41;1.60;80.80
17307;DHT22;8771;48.048;7.682;2023-01-19T03:58:45;1.60;80.90
17307;DHT22;8771;48.048;7.682;2023-01-19T04:03:46;1.60;80.90
17307;DHT22;8771;48.048;7.682;2023-01-19T04:08:50;1.50;80.90
17307;DHT22;8771;48.048;7.682;2023-01-19T04:13:53;1.40;80.90
17307;DHT22;8771;48.048;7.682;2023-01-19T04:18:55;1.50;80.90
17307;DHT22;8771;48.048;7.682;2023-01-19T04:23:57;1.40;80.90
17307;DHT22;8771;48.048;7.682;2023-01-19T04:29:00;1.40;81.00
17307;DHT22;8771;48.048;7.682;2023-01-19T04:34:02;1.40;81.00
17307;DHT22;8771;48.048;7.682;2023-01-19T04:39:04;1.30;81.00
17307;DHT22;8771;48.048;7.682;2023-01-19T04:44:10;1.30;81.00
17307;DHT22;8771;48.048;7.682;2023-01-19T04:49:12;1.30;81.00
17307;DHT22;8771;48.048;7.682;2023-01-19T04:54:14;1.20;80.90
17307;DHT22;8771;48.048;7.682;2023-01-19T04:59:17;1.20;81.00
17307;DHT22;8771;48.048;7.682;2023-01-19T05:04:20;1.10;80.90
17307;DHT22;8771;48.048;7.682;2023-01-19T05:09:22;1.10;81.10
17307;DHT22;8771;48.048;7.682;2023-01-19T05:14:25;1.00;81.00
17307;DHT22;8771;48.048;7.682;2023-01-19T05:19:27;1.00;81.00
17307;DHT22;8771;48.048;7.682;2023-01-19T05:24:29;1.10;81.00
17307;DHT22;8771;48.048;7.682;2023-01-19T05:29:32;1.10;80.90
17307;DHT22;8771;48.048;7.682;2023-01-19T05:34:34;1.10;80.90
17307;DHT22;8771;48.048;7.682;2023-01-19T05:39:36;1.00;80.90
17307;DHT22;8771;48.048;7.682;2023-01-19T05:44:40;1.00;80.90
17307;DHT22;8771;48.048;7.682;2023-01-19T05:49:42;1.00;80.90
17307;DHT22;8771;48.048;7.682;2023-01-19T05:54:43;0.90;80.90
17307;DHT22;8771;48.048;7.682;2023-01-19T05:59:47;0.90;80.90
17307;DHT22;8771;48.048;7.682;2023-01-19T06:04:48;0.90;80.90
17307;DHT22;8771;48.048;7.682;2023-01-19T06:09:50;0.80;80.90
17307;DHT22;8771;48.048;7.682;2023-01-19T06:14:54;0.80;80.90
17307;DHT22;8771;48.048;7.682;2023-01-19T06:19:56;0.80;81.60
17307;DHT22;8771;48.048;7.682;2023-01-19T06:24:58;0.80;80.80
17307;DHT22;8771;48.048;7.682;2023-01-19T06:30:02;0.80;80.70
17307;DHT22;8771;48.048;7.682;2023-01-19T06:35:06;0.90;80.60
17307;DHT22;8771;48.048;7.682;2023-01-19T06:40:09;1.00;80.60
17307;DHT22;8771;48.048;7.682;2023-01-19T06:45:13;1.00;80.60
17307;DHT22;8771;48.048;7.682;2023-01-19T06:50:16;1.00;80.60
17307;DHT22;8771;48.048;7.682;2023-01-19T06:55:18;1.00;80.50
17307;DHT22;8771;48.048;7.682;2023-01-19T07:00:22;1.10;80.50
17307;DHT22;8771;48.048;7.682;2023-01-19T07:05:23;1.20;80.50
17307;DHT22;8771;48.048;7.682;2023-01-19T07:10:25;1.20;80.40
17307;DHT22;8771;48.048;7.682;2023-01-19T07:15:29;1.30;80.40
17307;DHT22;8771;48.048;7.682;2023-01-19T07:20:31;1.30;80.30
17307;DHT22;8771;48.048;7.682;2023-01-19T07:25:32;1.40;80.30
17307;DHT22;8771;48.048;7.682;2023-01-19T07:30:36;1.40;80.30
17307;DHT22;8771;48.048;7.682;2023-01-19T07:35:38;1.50;80.30
17307;DHT22;8771;48.048;7.682;2023-01-19T07:40:40;1.50;80.30
17307;DHT22;8771;48.048;7.682;2023-01-19T07:45:43;1.50;80.30
17307;DHT22;8771;48.048;7.682;2023-01-19T07:50:45;1.60;80.30
17307;DHT22;8771;48.048;7.682;2023-01-19T07:55:53;1.70;80.40
17307;DHT22;8771;48.048;7.682;2023-01-19T08:00:57;1.70;81.00
17307;DHT22;8771;48.048;7.682;2023-01-19T08:05:59;1.70;80.30
17307;DHT22;8771;48.048;7.682;2023-01-19T08:11:02;1.80;80.40
17307;DHT22;8771;48.048;7.682;2023-01-19T08:16:05;1.80;80.30
17307;DHT22;8771;48.048;7.682;2023-01-19T08:21:07;1.80;80.40
17307;DHT22;8771;48.048;7.682;2023-01-19T08:26:20;1.80;80.40
17307;DHT22;8771;48.048;7.682;2023-01-19T08:31:25;1.80;80.30
17307;DHT22;8771;48.048;7.682;2023-01-19T08:36:28;1.90;80.40
17307;DHT22;8771;48.048;7.682;2023-01-19T08:41:30;1.90;80.40
17307;DHT22;8771;48.048;7.682;2023-01-19T08:46:33;1.90;80.30
17307;DHT22;8771;48.048;7.682;2023-01-19T08:51:35;2.00;80.40
17307;DHT22;8771;48.048;7.682;2023-01-19T08:56:37;2.10;80.40
17307;DHT22;8771;48.048;7.682;2023-01-19T09:01:41;2.20;80.30
17307;DHT22;8771;48.048;7.682;2023-01-19T09:06:43;2.40;80.00
17307;DHT22;8771;48.048;7.682;2023-01-19T09:11:45;2.50;79.90
17307;DHT22;8771;48.048;7.682;2023-01-19T09:16:48;2.70;79.70
17307;DHT22;8771;48.048;7.682;2023-01-19T09:21:52;2.80;79.60
17307;DHT22;8771;48.048;7.682;2023-01-19T09:26:54;2.90;79.40
17307;DHT22;8771;48.048;7.682;2023-01-19T09:31:58;3.00;79.50
17307;DHT22;8771;48.048;7.682;2023-01-19T09:37:01;3.10;79.40
17307;DHT22;8771;48.048;7.682;2023-01-19T09:42:12;3.20;79.40
17307;DHT22;8771;48.048;7.682;2023-01-19T09:47:23;3.30;80.10
17307;DHT22;8771;48.048;7.682;2023-01-19T09:52:28;3.40;79.40
17307;DHT22;8771;48.048;7.682;2023-01-19T09:57:31;3.60;79.40
17307;DHT22;8771;48.048;7.682;2023-01-19T10:02:39;3.60;79.30
17307;DHT22;8771;48.048;7.682;2023-01-19T10:07:52;3.70;79.40
17307;DHT22;8771;48.048;7.682;2023-01-19T10:13:13;3.80;79.30
17307;DHT22;8771;48.048;7.682;2023-01-19T10:18:22;4.00;79.30
17307;DHT22;8771;48.048;7.682;2023-01-19T10:23:37;4.10;79.20
17307;DHT22;8771;48.048;7.682;2023-01-19T10:28:40;4.10;79.20
17307;DHT22;8771;48.048;7.682;2023-01-19T10:33:44;4.20;79.30
17307;DHT22;8771;48.048;7.682;2023-01-19T10:38:47;4.20;79.20
17307;DHT22;8771;48.048;7.682;2023-01-19T10:43:58;4.20;79.30
17307;DHT22;8771;48.048;7.682;2023-01-19T10:49:02;4.30;79.30
17307;DHT22;8771;48.048;7.682;2023-01-19T10:54:10;4.40;79.30
17307;DHT22;8771;48.048;7.682;2023-01-19T10:59:29;4.40;79.30
17307;DHT22;8771;48.048;7.682;2023-01-19T11:04:33;4.50;79.30
17307;DHT22;8771;48.048;7.682;2023-01-19T11:09:35;4.70;79.30
17307;DHT22;8771;48.048;7.682;2023-01-19T11:14:37;4.70;79.10
17307;DHT22;8771;48.048;7.682;2023-01-19T11:19:41;4.90;79.10
17307;DHT22;8771;48.048;7.682;2023-01-19T11:24:43;5.00;78.90
17307;DHT22;8771;48.048;7.682;2023-01-19T11:29:47;5.20;78.80
17307;DHT22;8771;48.048;7.682;2023-01-19T11:34:52;5.30;78.70
17307;DHT22;8771;48.048;7.682;2023-01-19T11:39:55;5.50;78.60
17307;DHT22;8771;48.048;7.682;2023-01-19T11:45:02;5.60;78.60
17307;DHT22;8771;48.048;7.682;2023-01-19T11:50:20;5.70;78.60
17307;DHT22;8771;48.048;7.682;2023-01-19T11:55:29;5.80;78.70
17307;DHT22;8771;48.048;7.682;2023-01-19T12:00:36;5.80;78.60
17307;DHT22;8771;48.048;7.682;2023-01-19T12:11:40;5.90;78.60
17307;DHT22;8771;48.048;7.682;2023-01-19T12:16:44;5.90;78.60
17307;DHT22;8771;48.048;7.682;2023-01-19T12:21:47;5.90;78.70
17307;DHT22;8771;48.048;7.682;2023-01-19T12:26:53;5.90;78.90
17307;DHT22;8771;48.048;7.682;2023-01-19T12:32:15;6.00;78.90
17307;DHT22;8771;48.048;7.682;2023-01-19T12:37:32;6.20;78.70
17307;DHT22;8771;48.048;7.682;2023-01-19T12:42:43;6.40;78.30
17307;DHT22;8771;48.048;7.682;2023-01-19T12:47:49;6.50;78.00
17307;DHT22;8771;48.048;7.682;2023-01-19T12:52:52;6.50;78.00
17307;DHT22;8771;48.048;7.682;2023-01-19T12:58:01;6.40;78.20
17307;DHT22;8771;48.048;7.682;2023-01-19T13:03:41;6.30;78.50
17307;DHT22;8771;48.048;7.682;2023-01-19T13:09:23;6.40;78.50
17307;DHT22;8771;48.048;7.682;2023-01-19T13:14:39;6.60;78.40
17307;DHT22;8771;48.048;7.682;2023-01-19T13:25:12;6.80;78.20
17307;DHT22;8771;48.048;7.682;2023-01-19T13:30:17;6.80;78.20
17307;DHT22;8771;48.048;7.682;2023-01-19T13:35:20;6.80;78.20
17307;DHT22;8771;48.048;7.682;2023-01-19T13:40:26;6.80;78.40
17307;DHT22;8771;48.048;7.682;2023-01-19T13:45:34;6.80;78.50
17307;DHT22;8771;48.048;7.682;2023-01-19T13:50:37;6.80;78.50
17307;DHT22;8771;48.048;7.682;2023-01-19T13:55:39;6.70;78.60
17307;DHT22;8771;48.048;7.682;2023-01-19T14:00:44;6.60;78.80
17307;DHT22;8771;48.048;7.682;2023-01-19T14:05:49;6.50;78.90
17307;DHT22;8771;48.048;7.682;2023-01-19T14:11:00;6.40;79.00
17307;DHT22;8771;48.048;7.682;2023-01-19T14:16:06;6.40;79.00
17307;DHT22;8771;48.048;7.682;2023-01-19T14:21:10;6.30;79.10
17307;DHT22;8771;48.048;7.682;2023-01-19T14:26:38;6.20;79.10
17307;DHT22;8771;48.048;7.682;2023-01-19T14:31:44;6.20;79.20
17307;DHT22;8771;48.048;7.682;2023-01-19T14:36:49;6.10;79.30
17307;DHT22;8771;48.048;7.682;2023-01-19T14:41:52;6.00;79.20
17307;DHT22;8771;48.048;7.682;2023-01-19T14:46:57;6.00;79.30
17307;DHT22;8771;48.048;7.682;2023-01-19T14:52:02;5.90;79.40
17307;DHT22;8771;48.048;7.682;2023-01-19T14:57:09;5.80;79.40
17307;DHT22;8771;48.048;7.682;2023-01-19T15:02:13;5.80;79.30
17307;DHT22;8771;48.048;7.682;2023-01-19T15:07:16;5.80;79.40
17307;DHT22;8771;48.048;7.682;2023-01-19T15:12:21;5.70;79.40
17307;DHT22;8771;48.048;7.682;2023-01-19T15:17:27;5.70;79.30
17307;DHT22;8771;48.048;7.682;2023-01-19T15:22:29;5.60;79.30
17307;DHT22;8771;48.048;7.682;2023-01-19T15:27:31;5.60;79.50
17307;DHT22;8771;48.048;7.682;2023-01-19T15:32:50;5.50;79.50
17307;DHT22;8771;48.048;7.682;2023-01-19T15:37:52;5.50;79.50
17307;DHT22;8771;48.048;7.682;2023-01-19T15:42:54;5.50;79.40
17307;DHT22;8771;48.048;7.682;2023-01-19T15:47:57;5.40;79.30
17307;DHT22;8771;48.048;7.682;2023-01-19T15:53:00;5.40;79.50
17307;DHT22;8771;48.048;7.682;2023-01-19T15:58:02;5.30;79.50
17307;DHT22;8771;48.048;7.682;2023-01-19T16:03:05;5.30;79.40
17307;DHT22;8771;48.048;7.682;2023-01-19T16:08:07;5.20;79.40
17307;DHT22;8771;48.048;7.682;2023-01-19T16:13:10;5.20;79.50
17307;DHT22;8771;48.048;7.682;2023-01-19T16:18:13;5.10;79.50
17307;DHT22;8771;48.048;7.682;2023-01-19T16:23:15;5.10;79.50
17307;DHT22;8771;48.048;7.682;2023-01-19T16:28:18;5.00;79.40
17307;DHT22;8771;48.048;7.682;2023-01-19T16:33:21;5.00;79.40
17307;DHT22;8771;48.048;7.682;2023-01-19T16:38:23;4.90;79.40
17307;DHT22;8771;48.048;7.682;2023-01-19T16:43:25;4.90;79.50
17307;DHT22;8771;48.048;7.682;2023-01-19T16:48:29;4.80;79.50
17307;DHT22;8771;48.048;7.682;2023-01-19T16:53:32;4.80;79.50
17307;DHT22;8771;48.048;7.682;2023-01-19T16:58:35;4.70;79.60
17307;DHT22;8771;48.048;7.682;2023-01-19T17:03:39;4.70;79.70
17307;DHT22;8771;48.048;7.682;2023-01-19T17:08:42;4.60;79.60
17307;DHT22;8771;48.048;7.682;2023-01-19T17:13:44;4.60;79.70
17307;DHT22;8771;48.048;7.682;2023-01-19T17:18:47;4.60;79.70
17307;DHT22;8771;48.048;7.682;2023-01-19T17:23:51;4.60;79.70
17307;DHT22;8771;48.048;7.682;2023-01-19T17:28:57;4.50;79.60
17307;DHT22;8771;48.048;7.682;2023-01-19T17:34:01;4.60;79.60
17307;DHT22;8771;48.048;7.682;2023-01-19T17:39:05;4.50;79.60
17307;DHT22;8771;48.048;7.682;2023-01-19T17:44:08;4.50;79.50
17307;DHT22;8771;48.048;7.682;2023-01-19T17:49:12;4.50;79.40
17307;DHT22;8771;48.048;7.682;2023-01-19T17:54:14;4.50;79.40
17307;DHT22;8771;48.048;7.682;2023-01-19T17:59:16;4.40;79.40
17307;DHT22;8771;48.048;7.682;2023-01-19T18:04:20;4.30;79.40
17307;DHT22;8771;48.048;7.682;2023-01-19T18:09:22;4.30;79.50
17307;DHT22;8771;48.048;7.682;2023-01-19T18:14:24;4.20;79.50
17307;DHT22;8771;48.048;7.682;2023-01-19T18:19:27;4.20;79.60
17307;DHT22;8771;48.048;7.682;2023-01-19T18:24:30;4.10;80.30
17307;DHT22;8771;48.048;7.682;2023-01-19T18:29:32;4.10;79.60
17307;DHT22;8771;48.048;7.682;2023-01-19T18:34:35;4.10;79.60
17307;DHT22;8771;48.048;7.682;2023-01-19T18:39:37;4.10;79.60
17307;DHT22;8771;48.048;7.682;2023-01-19T18:44:40;4.10;79.50
17307;DHT22;8771;48.048;7.682;2023-01-19T18:49:43;4.10;79.50
17307;DHT22;8771;48.048;7.682;2023-01-19T18:54:47;4.10;79.50
17307;DHT22;8771;48.048;7.682;2023-01-19T18:59:49;4.10;79.50
17307;DHT22;8771;48.048;7.682;2023-01-19T19:04:56;4.00;79.40
17307;DHT22;8771;48.048;7.682;2023-01-19T19:09:58;4.00;79.40
17307;DHT22;8771;48.048;7.682;2023-01-19T19:15:00;4.00;79.40
17307;DHT22;8771;48.048;7.682;2023-01-19T19:20:04;4.00;79.40
17307;DHT22;8771;48.048;7.682;2023-01-19T19:25:08;4.00;79.40
17307;DHT22;8771;48.048;7.682;2023-01-19T19:30:10;4.00;79.50
17307;DHT22;8771;48.048;7.682;2023-01-19T19:35:14;4.00;79.50
17307;DHT22;8771;48.048;7.682;2023-01-19T19:40:19;4.00;79.30
17307;DHT22;8771;48.048;7.682;2023-01-19T19:45:21;4.00;79.40
17307;DHT22;8771;48.048;7.682;2023-01-19T19:50:24;4.00;79.30
17307;DHT22;8771;48.048;7.682;2023-01-19T19:55:26;4.00;79.40
17307;DHT22;8771;48.048;7.682;2023-01-19T20:00:28;3.90;79.40
17307;DHT22;8771;48.048;7.682;2023-01-19T20:05:34;3.90;79.50
17307;DHT22;8771;48.048;7.682;2023-01-19T20:10:37;3.90;79.50
17307;DHT22;8771;48.048;7.682;2023-01-19T20:15:40;3.80;79.50
17307;DHT22;8771;48.048;7.682;2023-01-19T20:20:43;3.80;79.50
17307;DHT22;8771;48.048;7.682;2023-01-19T20:25:45;3.80;79.40
17307;DHT22;8771;48.048;7.682;2023-01-19T20:30:47;3.80;79.50
17307;DHT22;8771;48.048;7.682;2023-01-19T20:35:50;3.70;79.60
17307;DHT22;8771;48.048;7.682;2023-01-19T20:40:53;3.70;79.60
17307;DHT22;8771;48.048;7.682;2023-01-19T20:45:54;3.70;79.60
17307;DHT22;8771;48.048;7.682;2023-01-19T20:51:03;3.70;79.50
17307;DHT22;8771;48.048;7.682;2023-01-19T20:56:09;3.70;79.60
17307;DHT22;8771;48.048;7.682;2023-01-19T21:01:14;3.70;79.50
17307;DHT22;8771;48.048;7.682;2023-01-19T21:06:20;3.70;79.50
17307;DHT22;8771;48.048;7.682;2023-01-19T21:11:23;3.70;79.50
17307;DHT22;8771;48.048;7.682;2023-01-19T21:16:28;3.70;79.50
17307;DHT22;8771;48.048;7.682;2023-01-19T21:21:31;3.70;79.50
17307;DHT22;8771;48.048;7.682;2023-01-19T21:26:33;3.70;79.50
17307;DHT22;8771;48.048;7.682;2023-01-19T21:31:35;3.70;79.50
17307;DHT22;8771;48.048;7.682;2023-01-19T21:36:41;3.70;79.50
17307;DHT22;8771;48.048;7.682;2023-01-19T21:41:45;3.70;79.50
17307;DHT22;8771;48.048;7.682;2023-01-19T21:46:47;3.70;79.50
17307;DHT22;8771;48.048;7.682;2023-01-19T21:51:50;3.70;79.50
17307;DHT22;8771;48.048;7.682;2023-01-19T21:56:52;3.70;79.50
17307;DHT22;8771;48.048;7.682;2023-01-19T22:01:54;3.60;79.50
17307;DHT22;8771;48.048;7.682;2023-01-19T22:06:57;3.60;79.60
17307;DHT22;8771;48.048;7.682;2023-01-19T22:11:59;3.60;79.60
17307;DHT22;8771;48.048;7.682;2023-01-19T22:17:01;3.60;79.60
17307;DHT22;8771;48.048;7.682;2023-01-19T22:22:06;3.60;79.60
17307;DHT22;8771;48.048;7.682;2023-01-19T22:27:08;3.60;79.60
17307;DHT22;8771;48.048;7.682;2023-01-19T22:32:10;3.60;79.60
17307;DHT22;8771;48.048;7.682;2023-01-19T22:37:13;3.60;79.60
17307;DHT22;8771;48.048;7.682;2023-01-19T22:42:15;3.60;79.60
17307;DHT22;8771;48.048;7.682;2023-01-19T22:47:17;3.60;79.60
17307;DHT22;8771;48.048;7.682;2023-01-19T22:52:20;3.60;79.60
17307;DHT22;8771;48.048;7.682;2023-01-19T22:57:22;3.60;79.60
17307;DHT22;8771;48.048;7.682;2023-01-19T23:02:24;3.60;79.60
17307;DHT22;8771;48.048;7.682;2023-01-19T23:07:28;3.60;79.60
17307;DHT22;8771;48.048;7.682;2023-01-19T23:12:31;3.60;79.50
17307;DHT22;8771;48.048;7.682;2023-01-19T23:17:33;3.60;79.50
17307;DHT22;8771;48.048;7.682;2023-01-19T23:22:36;3.60;79.60
17307;DHT22;8771;48.048;7.682;2023-01-19T23:27:39;3.50;79.60
17307;DHT22;8771;48.048;7.682;2023-01-19T23:32:46;3.50;79.60
17307;DHT22;8771;48.048;7.682;2023-01-19T23:37:49;3.60;79.70
17307;DHT22;8771;48.048;7.682;2023-01-19T23:42:53;3.50;79.60
17307;DHT22;8771;48.048;7.682;2023-01-19T23:47:55;3.50;79.60
17307;DHT22;8771;48.048;7.682;2023-01-19T23:52:58;3.50;79.60
17307;DHT22;8771;48.048;7.682;2023-01-19T23:58:01;3.50;79.60
